EmailTwitter


Observations de surface / France / LFBP (07610)

Régions: Québec | Canada | États-Unis | Europe | France | UK | Elsewhere
Station
Affichage
Infos & localisation pour LFBP (07610) | Aide pour décoder les METARs

Observations prises le 2017-04-29 à 19H00 UTC à PONT-LONG-UZEIN/, FR (LFBP)

Température: 17.0 Celsius

Point de rosée: 1.0 Celsius

Humidité relative: 34%

Vents: Sud-est à 7 km/h ou 4 noeuds.

Pression au niveau moyen de la mer: 100.70 kilopascals.

Observation METAR:

LFBP 291900Z AUTO 12004KT CAVOK 17/01 Q1007 NOSIG=